sensor_id;sensor_type;location;lat;lon;timestamp;pressure;altitude;pressure_sealevel;temperature;humidity
72486;BME280;60509;47.308;-122.428;2022-12-01T00:01:01;99005.53;;;-7.55;57.03
72486;BME280;60509;47.308;-122.428;2022-12-01T00:03:29;99005.27;;;-7.10;56.21
72486;BME280;60509;47.308;-122.428;2022-12-01T00:05:58;99012.57;;;-6.94;56.24
72486;BME280;60509;47.308;-122.428;2022-12-01T00:08:18;99006.60;;;-7.77;56.80
72486;BME280;60509;47.308;-122.428;2022-12-01T00:10:44;98999.98;;;-7.46;56.31
72486;BME280;60509;47.308;-122.428;2022-12-01T00:13:10;99003.35;;;-6.11;53.62
72486;BME280;60509;47.308;-122.428;2022-12-01T00:15:36;99005.62;;;-6.14;54.76
72486;BME280;60509;47.308;-122.428;2022-12-01T00:18:02;99002.78;;;-5.64;53.65
72486;BME280;60509;47.308;-122.428;2022-12-01T00:20:28;99005.25;;;-7.59;56.12
72486;BME280;60509;47.308;-122.428;2022-12-01T00:22:53;99006.48;;;-5.65;53.54
72486;BME280;60509;47.308;-122.428;2022-12-01T00:25:19;99005.93;;;-7.02;55.02
72486;BME280;60509;47.308;-122.428;2022-12-01T00:27:48;99003.54;;;-6.64;54.58
72486;BME280;60509;47.308;-122.428;2022-12-01T00:30:12;99010.61;;;-7.24;53.86
72486;BME280;60509;47.308;-122.428;2022-12-01T00:32:37;99012.47;;;-6.66;54.44
72486;BME280;60509;47.308;-122.428;2022-12-01T00:35:02;99012.40;;;-6.88;53.94
72486;BME280;60509;47.308;-122.428;2022-12-01T00:37:29;99014.73;;;-6.54;52.79
72486;BME280;60509;47.308;-122.428;2022-12-01T00:39:53;99009.84;;;-8.11;54.12
72486;BME280;60509;47.308;-122.428;2022-12-01T00:42:19;99014.15;;;-5.29;51.12
72486;BME280;60509;47.308;-122.428;2022-12-01T00:44:45;99016.10;;;-5.34;51.01
72486;BME280;60509;47.308;-122.428;2022-12-01T00:47:11;99021.04;;;-5.78;52.06
72486;BME280;60509;47.308;-122.428;2022-12-01T00:49:36;99022.38;;;-4.69;50.87
72486;BME280;60509;47.308;-122.428;2022-12-01T00:52:02;99015.03;;;-6.36;51.04
72486;BME280;60509;47.308;-122.428;2022-12-01T00:54:28;99009.73;;;-7.16;52.93
72486;BME280;60509;47.308;-122.428;2022-12-01T00:56:54;98998.81;;;-4.81;50.75
72486;BME280;60509;47.308;-122.428;2022-12-01T00:59:19;99000.05;;;-6.46;53.12
72486;BME280;60509;47.308;-122.428;2022-12-01T01:01:45;99007.34;;;-7.63;56.26
72486;BME280;60509;47.308;-122.428;2022-12-01T01:04:11;99007.35;;;-7.32;55.05
72486;BME280;60509;47.308;-122.428;2022-12-01T01:06:37;99006.31;;;-5.90;52.07
72486;BME280;60509;47.308;-122.428;2022-12-01T01:09:02;98999.45;;;-5.07;50.69
72486;BME280;60509;47.308;-122.428;2022-12-01T01:11:28;99001.42;;;-6.45;53.32
72486;BME280;60509;47.308;-122.428;2022-12-01T01:13:54;98997.52;;;-5.49;52.15
72486;BME280;60509;47.308;-122.428;2022-12-01T01:16:21;99002.11;;;-6.81;53.44
72486;BME280;60509;47.308;-122.428;2022-12-01T01:18:48;99014.68;;;-6.16;52.82
72486;BME280;60509;47.308;-122.428;2022-12-01T01:21:13;99024.83;;;-5.99;52.63
72486;BME280;60509;47.308;-122.428;2022-12-01T01:23:37;99033.45;;;-5.88;51.58
72486;BME280;60509;47.308;-122.428;2022-12-01T01:26:05;99049.21;;;-6.19;54.41
72486;BME280;60509;47.308;-122.428;2022-12-01T01:28:36;99052.15;;;-7.40;54.41
72486;BME280;60509;47.308;-122.428;2022-12-01T01:30:54;99055.10;;;-5.29;52.03
72486;BME280;60509;47.308;-122.428;2022-12-01T01:33:20;99055.19;;;-7.84;52.98
72486;BME280;60509;47.308;-122.428;2022-12-01T01:35:46;99055.25;;;-5.59;51.40
72486;BME280;60509;47.308;-122.428;2022-12-01T01:38:12;99055.16;;;-7.22;51.86
72486;BME280;60509;47.308;-122.428;2022-12-01T01:40:42;99058.58;;;-6.90;51.89
72486;BME280;60509;47.308;-122.428;2022-12-01T01:43:12;99070.40;;;-6.41;52.54
72486;BME280;60509;47.308;-122.428;2022-12-01T01:45:29;99071.56;;;-6.06;51.01
72486;BME280;60509;47.308;-122.428;2022-12-01T01:47:57;99077.51;;;-7.78;53.04
72486;BME280;60509;47.308;-122.428;2022-12-01T01:50:23;99078.53;;;-7.85;53.14
72486;BME280;60509;47.308;-122.428;2022-12-01T01:52:56;99074.90;;;-6.87;51.27
72486;BME280;60509;47.308;-122.428;2022-12-01T01:55:12;99072.13;;;-6.89;51.66
72486;BME280;60509;47.308;-122.428;2022-12-01T01:57:38;99066.41;;;-7.32;52.19
72486;BME280;60509;47.308;-122.428;2022-12-01T02:00:07;99061.08;;;-6.81;52.59
72486;BME280;60509;47.308;-122.428;2022-12-01T02:02:29;99060.48;;;-7.93;53.02
72486;BME280;60509;47.308;-122.428;2022-12-01T02:04:59;99060.65;;;-6.05;51.05
72486;BME280;60509;47.308;-122.428;2022-12-01T02:07:21;99060.75;;;-8.35;53.67
72486;BME280;60509;47.308;-122.428;2022-12-01T02:09:48;99055.02;;;-8.36;55.03
72486;BME280;60509;47.308;-122.428;2022-12-01T02:12:23;99052.95;;;-7.45;51.70
72486;BME280;60509;47.308;-122.428;2022-12-01T02:14:56;99056.87;;;-8.35;54.22
72486;BME280;60509;47.308;-122.428;2022-12-01T02:17:11;99059.64;;;-7.05;52.82
72486;BME280;60509;47.308;-122.428;2022-12-01T02:19:49;99053.99;;;-7.64;52.06
72486;BME280;60509;47.308;-122.428;2022-12-01T02:22:05;99053.62;;;-6.40;52.10
72486;BME280;60509;47.308;-122.428;2022-12-01T02:24:49;99047.07;;;-7.23;52.18
72486;BME280;60509;47.308;-122.428;2022-12-01T02:26:49;99041.24;;;-7.43;52.04
72486;BME280;60509;47.308;-122.428;2022-12-01T02:30:26;99041.45;;;-6.53;50.88
72486;BME280;60509;47.308;-122.428;2022-12-01T02:31:42;99045.42;;;-7.08;52.05
72486;BME280;60509;47.308;-122.428;2022-12-01T02:34:11;99054.96;;;-7.19;51.84
72486;BME280;60509;47.308;-122.428;2022-12-01T02:36:33;99067.12;;;-6.50;52.39
72486;BME280;60509;47.308;-122.428;2022-12-01T02:38:59;99073.84;;;-4.97;50.08
72486;BME280;60509;47.308;-122.428;2022-12-01T02:41:25;99073.60;;;-4.67;50.37
72486;BME280;60509;47.308;-122.428;2022-12-01T02:43:54;99067.61;;;-6.08;50.75
72486;BME280;60509;47.308;-122.428;2022-12-01T02:46:17;99058.96;;;-7.02;51.30
72486;BME280;60509;47.308;-122.428;2022-12-01T02:48:42;99058.93;;;-5.69;50.74
72486;BME280;60509;47.308;-122.428;2022-12-01T02:51:08;99061.29;;;-5.14;50.23
72486;BME280;60509;47.308;-122.428;2022-12-01T02:53:30;99064.42;;;-7.99;52.68
72486;BME280;60509;47.308;-122.428;2022-12-01T02:55:57;99069.12;;;-6.61;54.04
72486;BME280;60509;47.308;-122.428;2022-12-01T02:58:21;99078.87;;;-6.48;51.19
72486;BME280;60509;47.308;-122.428;2022-12-01T03:01:00;99088.27;;;-5.49;49.39
72486;BME280;60509;47.308;-122.428;2022-12-01T03:03:25;99087.38;;;-6.81;50.69
72486;BME280;60509;47.308;-122.428;2022-12-01T03:05:42;99089.76;;;-7.57;52.01
72486;BME280;60509;47.308;-122.428;2022-12-01T03:08:10;99090.90;;;-7.22;51.81
72486;BME280;60509;47.308;-122.428;2022-12-01T03:10:40;99085.85;;;-7.31;51.73
72486;BME280;60509;47.308;-122.428;2022-12-01T03:13:06;99085.68;;;-7.39;52.07
72486;BME280;60509;47.308;-122.428;2022-12-01T03:15:29;99081.73;;;-7.29;52.31
72486;BME280;60509;47.308;-122.428;2022-12-01T03:17:51;99080.45;;;-6.58;51.01
72486;BME280;60509;47.308;-122.428;2022-12-01T03:20:17;99082.61;;;-6.62;51.09
72486;BME280;60509;47.308;-122.428;2022-12-01T03:22:43;99082.95;;;-7.38;51.75
72486;BME280;60509;47.308;-122.428;2022-12-01T03:25:05;99087.32;;;-7.28;52.21
72486;BME280;60509;47.308;-122.428;2022-12-01T03:27:34;99086.91;;;-7.14;53.24
72486;BME280;60509;47.308;-122.428;2022-12-01T03:29:58;99085.29;;;-7.20;51.27
72486;BME280;60509;47.308;-122.428;2022-12-01T03:32:26;99087.12;;;-6.01;51.11
72486;BME280;60509;47.308;-122.428;2022-12-01T03:34:49;99086.21;;;-4.83;49.21
72486;BME280;60509;47.308;-122.428;2022-12-01T03:37:19;99084.08;;;-4.51;49.14
72486;BME280;60509;47.308;-122.428;2022-12-01T03:39:39;99082.29;;;-4.88;49.72
72486;BME280;60509;47.308;-122.428;2022-12-01T03:42:09;99082.02;;;-4.75;49.58
72486;BME280;60509;47.308;-122.428;2022-12-01T03:44:33;99085.14;;;-4.92;51.19
72486;BME280;60509;47.308;-122.428;2022-12-01T03:46:59;99085.18;;;-5.77;51.57
72486;BME280;60509;47.308;-122.428;2022-12-01T03:49:22;99081.90;;;-4.41;49.93
72486;BME280;60509;47.308;-122.428;2022-12-01T03:51:54;99081.79;;;-7.14;51.77
72486;BME280;60509;47.308;-122.428;2022-12-01T03:54:17;99080.73;;;-6.87;52.07
72486;BME280;60509;47.308;-122.428;2022-12-01T03:56:46;99082.11;;;-5.42;50.37
72486;BME280;60509;47.308;-122.428;2022-12-01T03:59:06;99086.19;;;-4.95;49.97
72486;BME280;60509;47.308;-122.428;2022-12-01T04:01:31;99084.91;;;-6.82;51.50
72486;BME280;60509;47.308;-122.428;2022-12-01T04:03:56;99090.53;;;-6.45;51.09
72486;BME280;60509;47.308;-122.428;2022-12-01T04:06:22;99095.78;;;-4.29;49.50
72486;BME280;60509;47.308;-122.428;2022-12-01T04:08:47;99097.11;;;-5.98;49.77
72486;BME280;60509;47.308;-122.428;2022-12-01T04:11:13;99098.80;;;-5.51;50.22
72486;BME280;60509;47.308;-122.428;2022-12-01T04:13:39;99097.72;;;-5.64;51.37
72486;BME280;60509;47.308;-122.428;2022-12-01T04:16:05;99097.36;;;-5.41;49.09
72486;BME280;60509;47.308;-122.428;2022-12-01T04:18:30;99095.71;;;-5.55;51.15
72486;BME280;60509;47.308;-122.428;2022-12-01T04:20:56;99093.45;;;-6.05;50.58
72486;BME280;60509;47.308;-122.428;2022-12-01T04:23:22;99087.01;;;-4.59;49.62
72486;BME280;60509;47.308;-122.428;2022-12-01T04:25:48;99088.96;;;-4.93;48.98
72486;BME280;60509;47.308;-122.428;2022-12-01T04:28:13;99094.59;;;-4.89;50.23
72486;BME280;60509;47.308;-122.428;2022-12-01T04:30:39;99093.61;;;-6.64;51.65
72486;BME280;60509;47.308;-122.428;2022-12-01T04:33:05;99091.93;;;-5.42;51.13
72486;BME280;60509;47.308;-122.428;2022-12-01T04:35:31;99090.90;;;-6.88;52.53
72486;BME280;60509;47.308;-122.428;2022-12-01T04:37:56;99084.00;;;-7.32;52.22
72486;BME280;60509;47.308;-122.428;2022-12-01T04:40:22;99081.00;;;-6.84;51.37
72486;BME280;60509;47.308;-122.428;2022-12-01T04:42:48;99080.22;;;-4.94;49.21
72486;BME280;60509;47.308;-122.428;2022-12-01T04:45:14;99078.63;;;-4.38;48.83
72486;BME280;60509;47.308;-122.428;2022-12-01T04:47:39;99075.94;;;-4.86;48.31
72486;BME280;60509;47.308;-122.428;2022-12-01T04:50:06;99076.32;;;-6.31;50.17
72486;BME280;60509;47.308;-122.428;2022-12-01T04:52:31;99085.26;;;-4.88;49.76
72486;BME280;60509;47.308;-122.428;2022-12-01T04:54:57;99090.51;;;-5.15;50.31
72486;BME280;60509;47.308;-122.428;2022-12-01T04:57:22;99089.51;;;-5.58;50.12
72486;BME280;60509;47.308;-122.428;2022-12-01T04:59:48;99097.70;;;-5.28;49.45
72486;BME280;60509;47.308;-122.428;2022-12-01T05:02:14;99103.30;;;-5.01;49.44
72486;BME280;60509;47.308;-122.428;2022-12-01T05:04:40;99105.83;;;-6.61;50.44
72486;BME280;60509;47.308;-122.428;2022-12-01T05:07:05;99106.94;;;-5.49;50.39
72486;BME280;60509;47.308;-122.428;2022-12-01T05:09:31;99103.31;;;-5.54;49.87
72486;BME280;60509;47.308;-122.428;2022-12-01T05:11:57;99101.53;;;-6.01;49.92
72486;BME280;60509;47.308;-122.428;2022-12-01T05:14:23;99097.99;;;-7.55;52.10
72486;BME280;60509;47.308;-122.428;2022-12-01T05:16:49;99094.19;;;-6.47;50.42
72486;BME280;60509;47.308;-122.428;2022-12-01T05:19:14;99093.18;;;-7.52;51.64
72486;BME280;60509;47.308;-122.428;2022-12-01T05:21:41;99091.55;;;-8.44;53.17
72486;BME280;60509;47.308;-122.428;2022-12-01T05:24:06;99089.30;;;-6.91;50.42
72486;BME280;60509;47.308;-122.428;2022-12-01T05:26:31;99089.46;;;-7.81;51.98
72486;BME280;60509;47.308;-122.428;2022-12-01T05:28:57;99084.72;;;-7.84;51.93
72486;BME280;60509;47.308;-122.428;2022-12-01T05:31:23;99074.40;;;-8.50;52.23
72486;BME280;60509;47.308;-122.428;2022-12-01T05:33:49;99070.96;;;-7.24;51.13
72486;BME280;60509;47.308;-122.428;2022-12-01T05:36:14;99067.23;;;-8.25;51.01
72486;BME280;60509;47.308;-122.428;2022-12-01T05:38:40;99069.18;;;-8.81;52.37
72486;BME280;60509;47.308;-122.428;2022-12-01T05:41:07;99070.70;;;-8.28;50.96
72486;BME280;60509;47.308;-122.428;2022-12-01T05:43:32;99072.73;;;-8.19;51.28
72486;BME280;60509;47.308;-122.428;2022-12-01T05:45:58;99075.35;;;-7.19;50.00
72486;BME280;60509;47.308;-122.428;2022-12-01T05:48:24;99075.05;;;-6.23;49.34
72486;BME280;60509;47.308;-122.428;2022-12-01T05:50:49;99077.75;;;-8.11;51.02
72486;BME280;60509;47.308;-122.428;2022-12-01T05:53:16;99077.59;;;-8.58;52.44
72486;BME280;60509;47.308;-122.428;2022-12-01T05:55:41;99079.12;;;-8.55;51.67
72486;BME280;60509;47.308;-122.428;2022-12-01T05:58:07;99082.01;;;-7.94;50.70
72486;BME280;60509;47.308;-122.428;2022-12-01T06:00:33;99083.45;;;-8.36;51.46
72486;BME280;60509;47.308;-122.428;2022-12-01T06:02:58;99084.51;;;-8.59;51.82
72486;BME280;60509;47.308;-122.428;2022-12-01T06:05:24;99087.81;;;-8.24;51.07
72486;BME280;60509;47.308;-122.428;2022-12-01T06:07:50;99097.30;;;-8.72;51.83
72486;BME280;60509;47.308;-122.428;2022-12-01T06:10:16;99096.52;;;-9.21;52.89
72486;BME280;60509;47.308;-122.428;2022-12-01T06:12:42;99103.66;;;-8.90;52.08
72486;BME280;60509;47.308;-122.428;2022-12-01T06:15:10;99107.60;;;-8.56;51.99
72486;BME280;60509;47.308;-122.428;2022-12-01T06:17:34;99112.31;;;-8.92;52.49
72486;BME280;60509;47.308;-122.428;2022-12-01T06:19:59;99113.05;;;-8.97;52.74
72486;BME280;60509;47.308;-122.428;2022-12-01T06:22:24;99111.53;;;-8.82;52.78
72486;BME280;60509;47.308;-122.428;2022-12-01T06:24:50;99113.82;;;-8.46;52.13
72486;BME280;60509;47.308;-122.428;2022-12-01T06:27:15;99112.07;;;-9.05;53.00
72486;BME280;60509;47.308;-122.428;2022-12-01T06:29:41;99112.62;;;-8.29;52.39
72486;BME280;60509;47.308;-122.428;2022-12-01T06:32:06;99110.31;;;-8.81;52.70
72486;BME280;60509;47.308;-122.428;2022-12-01T06:34:32;99107.50;;;-8.43;52.40
72486;BME280;60509;47.308;-122.428;2022-12-01T06:36:58;99105.23;;;-8.76;52.20
72486;BME280;60509;47.308;-122.428;2022-12-01T06:39:24;99107.59;;;-9.16;53.35
72486;BME280;60509;47.308;-122.428;2022-12-01T06:41:50;99106.65;;;-9.64;54.33
72486;BME280;60509;47.308;-122.428;2022-12-01T06:44:16;99104.22;;;-8.99;53.66
72486;BME280;60509;47.308;-122.428;2022-12-01T06:46:41;99101.45;;;-8.41;52.01
72486;BME280;60509;47.308;-122.428;2022-12-01T06:49:11;99100.50;;;-8.55;52.50
72486;BME280;60509;47.308;-122.428;2022-12-01T06:51:32;99099.93;;;-8.23;52.08
72486;BME280;60509;47.308;-122.428;2022-12-01T06:53:58;99098.42;;;-9.67;53.52
72486;BME280;60509;47.308;-122.428;2022-12-01T06:56:24;99098.14;;;-8.90;52.64
72486;BME280;60509;47.308;-122.428;2022-12-01T06:58:50;99098.76;;;-9.04;53.00
72486;BME280;60509;47.308;-122.428;2022-12-01T07:01:15;99102.21;;;-9.00;52.35
72486;BME280;60509;47.308;-122.428;2022-12-01T07:03:41;99101.31;;;-9.80;53.84
72486;BME280;60509;47.308;-122.428;2022-12-01T07:06:07;99103.95;;;-9.19;51.88
72486;BME280;60509;47.308;-122.428;2022-12-01T07:08:33;99098.48;;;-8.37;51.22
72486;BME280;60509;47.308;-122.428;2022-12-01T07:10:59;99099.75;;;-8.98;51.74
72486;BME280;60509;47.308;-122.428;2022-12-01T07:13:24;99101.79;;;-8.49;51.71
72486;BME280;60509;47.308;-122.428;2022-12-01T07:15:50;99101.53;;;-9.22;51.88
72486;BME280;60509;47.308;-122.428;2022-12-01T07:18:16;99105.11;;;-8.83;52.09
72486;BME280;60509;47.308;-122.428;2022-12-01T07:20:42;99098.94;;;-8.83;52.06
72486;BME280;60509;47.308;-122.428;2022-12-01T07:23:07;99098.65;;;-9.25;52.92
72486;BME280;60509;47.308;-122.428;2022-12-01T07:25:33;99093.39;;;-8.35;51.68
72486;BME280;60509;47.308;-122.428;2022-12-01T07:27:59;99094.37;;;-9.32;53.77
72486;BME280;60509;47.308;-122.428;2022-12-01T07:30:25;99090.64;;;-7.87;52.18
72486;BME280;60509;47.308;-122.428;2022-12-01T07:32:50;99087.59;;;-7.54;52.81
72486;BME280;60509;47.308;-122.428;2022-12-01T07:35:16;99082.80;;;-7.21;52.28
72486;BME280;60509;47.308;-122.428;2022-12-01T07:37:41;99076.73;;;-5.92;51.18
72486;BME280;60509;47.308;-122.428;2022-12-01T07:40:08;99070.70;;;-8.02;52.66
72486;BME280;60509;47.308;-122.428;2022-12-01T07:42:33;99071.23;;;-8.92;53.16
72486;BME280;60509;47.308;-122.428;2022-12-01T07:44:59;99073.99;;;-8.04;52.04
72486;BME280;60509;47.308;-122.428;2022-12-01T07:47:25;99074.50;;;-8.47;53.00
72486;BME280;60509;47.308;-122.428;2022-12-01T07:49:51;99071.98;;;-8.24;52.34
72486;BME280;60509;47.308;-122.428;2022-12-01T07:52:17;99071.74;;;-9.04;53.56
72486;BME280;60509;47.308;-122.428;2022-12-01T07:54:42;99067.08;;;-8.56;52.55
72486;BME280;60509;47.308;-122.428;2022-12-01T07:57:08;99067.35;;;-9.22;53.07
72486;BME280;60509;47.308;-122.428;2022-12-01T07:59:34;99070.15;;;-8.95;53.55
72486;BME280;60509;47.308;-122.428;2022-12-01T08:02:00;99070.72;;;-9.58;53.97
72486;BME280;60509;47.308;-122.428;2022-12-01T08:04:25;99067.93;;;-9.33;53.64
72486;BME280;60509;47.308;-122.428;2022-12-01T08:06:51;99067.57;;;-9.22;53.71
72486;BME280;60509;47.308;-122.428;2022-12-01T08:09:17;99069.46;;;-8.79;53.02
72486;BME280;60509;47.308;-122.428;2022-12-01T08:11:43;99073.38;;;-9.66;54.66
72486;BME280;60509;47.308;-122.428;2022-12-01T08:14:09;99069.86;;;-8.69;53.46
72486;BME280;60509;47.308;-122.428;2022-12-01T08:16:35;99072.87;;;-8.83;53.73
72486;BME280;60509;47.308;-122.428;2022-12-01T08:19:00;99078.78;;;-8.28;54.84
72486;BME280;60509;47.308;-122.428;2022-12-01T08:21:26;99083.21;;;-7.84;53.03
72486;BME280;60509;47.308;-122.428;2022-12-01T08:23:54;99082.79;;;-8.89;53.60
72486;BME280;60509;47.308;-122.428;2022-12-01T08:26:19;99081.72;;;-7.93;53.07
72486;BME280;60509;47.308;-122.428;2022-12-01T08:28:43;99080.28;;;-8.89;54.18
72486;BME280;60509;47.308;-122.428;2022-12-01T08:31:10;99077.42;;;-7.79;52.54
72486;BME280;60509;47.308;-122.428;2022-12-01T08:33:34;99077.30;;;-8.84;54.78
72486;BME280;60509;47.308;-122.428;2022-12-01T08:36:01;99073.55;;;-8.48;53.20
72486;BME280;60509;47.308;-122.428;2022-12-01T08:38:26;99064.86;;;-7.93;52.79
72486;BME280;60509;47.308;-122.428;2022-12-01T08:40:51;99070.48;;;-7.76;52.46
72486;BME280;60509;47.308;-122.428;2022-12-01T08:43:17;99070.02;;;-8.78;53.58
72486;BME280;60509;47.308;-122.428;2022-12-01T08:45:43;99071.76;;;-9.02;54.51
72486;BME280;60509;47.308;-122.428;2022-12-01T08:48:09;99072.05;;;-8.68;54.14
72486;BME280;60509;47.308;-122.428;2022-12-01T08:50:35;99073.45;;;-8.38;53.81
72486;BME280;60509;47.308;-122.428;2022-12-01T08:53:00;99071.02;;;-8.84;54.10
72486;BME280;60509;47.308;-122.428;2022-12-01T08:55:26;99068.32;;;-9.16;54.77
72486;BME280;60509;47.308;-122.428;2022-12-01T08:57:52;99069.42;;;-8.86;54.83
72486;BME280;60509;47.308;-122.428;2022-12-01T09:00:18;99066.50;;;-8.04;53.57
72486;BME280;60509;47.308;-122.428;2022-12-01T09:02:44;99067.28;;;-8.73;54.37
72486;BME280;60509;47.308;-122.428;2022-12-01T09:05:10;99063.88;;;-7.79;53.26
72486;BME280;60509;47.308;-122.428;2022-12-01T09:07:35;99064.42;;;-8.15;52.91
72486;BME280;60509;47.308;-122.428;2022-12-01T09:10:01;99060.93;;;-7.31;52.24
72486;BME280;60509;47.308;-122.428;2022-12-01T09:12:29;99062.27;;;-8.13;54.19
72486;BME280;60509;47.308;-122.428;2022-12-01T09:14:53;99059.11;;;-7.15;53.37
72486;BME280;60509;47.308;-122.428;2022-12-01T09:17:18;99058.26;;;-8.56;54.25
72486;BME280;60509;47.308;-122.428;2022-12-01T09:19:44;99061.73;;;-7.01;52.01
72486;BME280;60509;47.308;-122.428;2022-12-01T09:22:11;99063.97;;;-7.50;51.60
72486;BME280;60509;47.308;-122.428;2022-12-01T09:24:36;99067.10;;;-6.94;51.56
72486;BME280;60509;47.308;-122.428;2022-12-01T09:27:02;99066.81;;;-7.02;52.42
72486;BME280;60509;47.308;-122.428;2022-12-01T09:29:27;99066.86;;;-8.65;54.16
72486;BME280;60509;47.308;-122.428;2022-12-01T09:31:55;99069.63;;;-9.07;54.42
72486;BME280;60509;47.308;-122.428;2022-12-01T09:34:19;99072.04;;;-7.93;53.25
72486;BME280;60509;47.308;-122.428;2022-12-01T09:36:45;99070.96;;;-7.03;51.62
72486;BME280;60509;47.308;-122.428;2022-12-01T09:39:12;99069.13;;;-7.79;52.36
72486;BME280;60509;47.308;-122.428;2022-12-01T09:41:40;99065.19;;;-7.06;52.33
72486;BME280;60509;47.308;-122.428;2022-12-01T09:44:10;99062.64;;;-6.10;51.34
72486;BME280;60509;47.308;-122.428;2022-12-01T09:46:33;99064.44;;;-8.37;53.31
72486;BME280;60509;47.308;-122.428;2022-12-01T09:48:55;99064.88;;;-8.48;53.62
72486;BME280;60509;47.308;-122.428;2022-12-01T09:51:22;99065.06;;;-7.03;51.96
72486;BME280;60509;47.308;-122.428;2022-12-01T09:53:53;99068.56;;;-8.20;53.64
72486;BME280;60509;47.308;-122.428;2022-12-01T09:56:20;99071.95;;;-8.54;54.20
72486;BME280;60509;47.308;-122.428;2022-12-01T09:58:37;99072.18;;;-9.13;55.44
72486;BME280;60509;47.308;-122.428;2022-12-01T10:01:02;99071.77;;;-7.50;54.05
72486;BME280;60509;47.308;-122.428;2022-12-01T10:03:33;99074.14;;;-8.31;54.35
72486;BME280;60509;47.308;-122.428;2022-12-01T10:05:57;99074.41;;;-8.33;54.43
72486;BME280;60509;47.308;-122.428;2022-12-01T10:08:23;99077.74;;;-7.64;54.18
72486;BME280;60509;47.308;-122.428;2022-12-01T10:10:48;99079.34;;;-6.57;53.00
72486;BME280;60509;47.308;-122.428;2022-12-01T10:13:18;99086.16;;;-7.91;54.04
72486;BME280;60509;47.308;-122.428;2022-12-01T10:15:45;99089.96;;;-8.86;54.90
72486;BME280;60509;47.308;-122.428;2022-12-01T10:18:16;99089.50;;;-7.15;52.39
72486;BME280;60509;47.308;-122.428;2022-12-01T10:20:33;99091.46;;;-6.14;50.94
72486;BME280;60509;47.308;-122.428;2022-12-01T10:23:26;99093.34;;;-7.41;52.64
72486;BME280;60509;47.308;-122.428;2022-12-01T10:25:22;99089.84;;;-8.43;53.41
72486;BME280;60509;47.308;-122.428;2022-12-01T10:27:53;99090.25;;;-7.04;52.77
72486;BME280;60509;47.308;-122.428;2022-12-01T10:30:15;99090.14;;;-8.71;54.68
72486;BME280;60509;47.308;-122.428;2022-12-01T10:32:46;99088.48;;;-6.39;51.26
72486;BME280;60509;47.308;-122.428;2022-12-01T10:35:03;99089.60;;;-7.55;52.65
72486;BME280;60509;47.308;-122.428;2022-12-01T10:37:30;99090.01;;;-7.43;52.70
72486;BME280;60509;47.308;-122.428;2022-12-01T10:39:55;99091.52;;;-5.93;50.81
72486;BME280;60509;47.308;-122.428;2022-12-01T10:42:29;99092.40;;;-7.85;53.08
72486;BME280;60509;47.308;-122.428;2022-12-01T10:44:47;99091.08;;;-6.90;51.45
72486;BME280;60509;47.308;-122.428;2022-12-01T10:47:18;99090.45;;;-8.15;53.98
72486;BME280;60509;47.308;-122.428;2022-12-01T10:49:39;99096.98;;;-8.38;53.91
72486;BME280;60509;47.308;-122.428;2022-12-01T10:52:04;99096.59;;;-7.22;53.04
72486;BME280;60509;47.308;-122.428;2022-12-01T10:54:34;99104.39;;;-8.16;54.30
72486;BME280;60509;47.308;-122.428;2022-12-01T10:56:56;99105.41;;;-7.16;52.79
72486;BME280;60509;47.308;-122.428;2022-12-01T10:59:25;99110.03;;;-7.10;52.89
72486;BME280;60509;47.308;-122.428;2022-12-01T11:01:47;99109.42;;;-7.33;53.29
72486;BME280;60509;47.308;-122.428;2022-12-01T11:04:24;99109.37;;;-6.60;52.28
72486;BME280;60509;47.308;-122.428;2022-12-01T11:06:38;99110.31;;;-8.01;54.37
72486;BME280;60509;47.308;-122.428;2022-12-01T11:09:06;99110.00;;;-7.43;53.24
72486;BME280;60509;47.308;-122.428;2022-12-01T11:11:31;99108.41;;;-7.34;53.14
72486;BME280;60509;47.308;-122.428;2022-12-01T11:13:56;99108.49;;;-5.56;51.20
72486;BME280;60509;47.308;-122.428;2022-12-01T11:16:42;99106.01;;;-7.58;52.74
72486;BME280;60509;47.308;-122.428;2022-12-01T11:18:46;99103.19;;;-7.42;53.09
72486;BME280;60509;47.308;-122.428;2022-12-01T11:21:14;99101.25;;;-7.69;53.33
72486;BME280;60509;47.308;-122.428;2022-12-01T11:23:44;99099.28;;;-5.60;50.94
72486;BME280;60509;47.308;-122.428;2022-12-01T11:26:09;99097.66;;;-7.35;53.01
72486;BME280;60509;47.308;-122.428;2022-12-01T11:28:30;99102.19;;;-7.92;53.19
72486;BME280;60509;47.308;-122.428;2022-12-01T11:30:56;99104.70;;;-5.96;51.61
72486;BME280;60509;47.308;-122.428;2022-12-01T11:33:21;99108.58;;;-7.94;53.56
72486;BME280;60509;47.308;-122.428;2022-12-01T11:35:48;99110.13;;;-6.43;51.33
72486;BME280;60509;47.308;-122.428;2022-12-01T11:38:19;99110.49;;;-7.13;52.52
72486;BME280;60509;47.308;-122.428;2022-12-01T11:40:45;99116.69;;;-8.10;54.98
72486;BME280;60509;47.308;-122.428;2022-12-01T11:43:05;99113.01;;;-7.11;53.18
72486;BME280;60509;47.308;-122.428;2022-12-01T11:45:31;99116.31;;;-7.52;53.39
72486;BME280;60509;47.308;-122.428;2022-12-01T11:48:01;99119.78;;;-7.21;52.81
72486;BME280;60509;47.308;-122.428;2022-12-01T11:50:25;99120.93;;;-6.52;53.75
72486;BME280;60509;47.308;-122.428;2022-12-01T11:52:47;99123.71;;;-6.04;50.47
72486;BME280;60509;47.308;-122.428;2022-12-01T11:55:21;99129.42;;;-5.32;50.70
72486;BME280;60509;47.308;-122.428;2022-12-01T11:57:40;99133.97;;;-5.90;49.85
72486;BME280;60509;47.308;-122.428;2022-12-01T12:00:13;99134.43;;;-5.75;50.91
72486;BME280;60509;47.308;-122.428;2022-12-01T12:02:37;99133.61;;;-5.04;48.99
72486;BME280;60509;47.308;-122.428;2022-12-01T12:05:07;99136.93;;;-6.05;50.01
72486;BME280;60509;47.308;-122.428;2022-12-01T12:07:27;99139.02;;;-6.82;50.25
72486;BME280;60509;47.308;-122.428;2022-12-01T12:09:58;99142.27;;;-5.80;50.04
72486;BME280;60509;47.308;-122.428;2022-12-01T12:12:24;99142.90;;;-6.79;50.84
72486;BME280;60509;47.308;-122.428;2022-12-01T12:14:46;99146.89;;;-4.37;47.85
72486;BME280;60509;47.308;-122.428;2022-12-01T12:17:15;99149.64;;;-4.23;48.02
72486;BME280;60509;47.308;-122.428;2022-12-01T12:19:43;99155.70;;;-5.35;49.04
72486;BME280;60509;47.308;-122.428;2022-12-01T12:22:06;99158.80;;;-5.77;50.56